Time;durP1;ratioP1;P1;durP2;ratioP2;P2;SDS_P1;SDS_P2;PMS_P1;PMS_P2;Temp;Humidity;BMP_temperature;BMP_pressure;BME280_temperature;BME280_humidity;BME280_pressure;Samples;Min_cycle;Max_cycle;Signal;HPM_P1;HPM_P2
2024/03/22 00:00:56;;;;;;;22.17;10.02;;;;;;;;;;4921759;28;20063;-62
2024/03/22 00:03:49;;;;;;;21.05;9.55;;;;;;;;;;4935374;28;20521;-61
2024/03/22 00:06:42;;;;;;;15.60;8.48;;;;;;;;;;4937212;28;20056;-61
2024/03/22 00:09:29;;;;;;;25.15;9.98;;;;;;;;;;4927571;28;20059;-61
2024/03/22 00:12:22;;;;;;;24.77;10.98;;;;;;;;;;4939089;28;20523;-61
2024/03/22 00:15:15;;;;;;;25.70;10.95;;;;;;;;;;4924184;28;20058;-61
2024/03/22 00:18:08;;;;;;;22.15;9.07;;;;;;;;;;4961058;28;20097;-48
2024/03/22 00:21:02;;;;;;;35.33;11.90;;;;;;;;;;4981756;28;20108;-47
2024/03/22 00:23:47;;;;;;;23.08;10.32;;;;;;;;;;4964067;28;20070;-47
2024/03/22 00:26:40;;;;;;;34.17;13.02;;;;;;;;;;4961447;28;20067;-60
2024/03/22 00:29:26;;;;;;;28.33;11.07;;;;;;;;;;4963147;28;20066;-51
2024/03/22 00:32:19;;;;;;;33.80;11.18;;;;;;;;;;4960277;28;20062;-49
2024/03/22 00:35:12;;;;;;;25.70;9.38;;;;;;;;;;4961302;28;20047;-48
2024/03/22 00:38:05;;;;;;;39.30;10.75;;;;;;;;;;4959964;28;20063;-52
2024/03/22 00:40:51;;;;;;;37.40;10.27;;;;;;;;;;4960752;28;20062;-48
2024/03/22 00:43:44;;;;;;;38.13;10.63;;;;;;;;;;4959360;28;20054;-50
2024/03/22 00:46:31;;;;;;;32.45;9.82;;;;;;;;;;4959124;28;20067;-60
2024/03/22 00:49:23;;;;;;;27.33;8.38;;;;;;;;;;4960373;28;20062;-60
2024/03/22 00:52:09;;;;;;;29.05;9.40;;;;;;;;;;4962651;28;20116;-60
2024/03/22 00:55:02;;;;;;;19.40;6.07;;;;;;;;;;4964564;28;20066;-50
2024/03/22 00:57:48;;;;;;;21.00;6.63;;;;;;;;;;4961352;28;20054;-61
2024/03/22 01:00:41;;;;;;;18.73;7.22;;;;;;;;;;4962807;28;20661;-60
2024/03/22 01:03:27;;;;;;;18.27;6.40;;;;;;;;;;4959365;28;20324;-60
2024/03/22 01:06:24;;;;;;;17.15;5.65;;;;;;;;;;4963240;28;20566;-61
2024/03/22 01:09:07;;;;;;;18.23;5.32;;;;;;;;;;4965320;28;20058;-60
2024/03/22 01:11:59;;;;;;;10.75;4.50;;;;;;;;;;4959475;28;20054;-60
2024/03/22 01:14:45;;;;;;;10.05;3.88;;;;;;;;;;4960187;28;20050;-60
2024/03/22 01:17:45;;;;;;;12.90;4.55;;;;;;;;;;4962053;28;20058;-60
2024/03/22 01:20:31;;;;;;;12.65;4.53;;;;;;;;;;4959399;28;20174;-60
2024/03/22 01:23:24;;;;;;;11.13;4.35;;;;;;;;;;4962913;28;21270;-52
2024/03/22 01:26:10;;;;;;;12.85;4.70;;;;;;;;;;4957635;28;20868;-62
2024/03/22 01:29:03;;;;;;;14.60;4.15;;;;;;;;;;4960183;28;20066;-61
2024/03/22 01:31:49;;;;;;;17.63;5.30;;;;;;;;;;4959672;28;20059;-61
2024/03/22 01:34:42;;;;;;;11.75;4.65;;;;;;;;;;4957720;28;20066;-61
2024/03/22 01:37:35;;;;;;;14.68;5.43;;;;;;;;;;4960380;28;20548;-61
2024/03/22 01:40:21;;;;;;;12.73;4.72;;;;;;;;;;4959022;28;20055;-61
2024/03/22 01:43:14;;;;;;;10.27;4.78;;;;;;;;;;4976782;28;20088;-60
2024/03/22 01:46:00;;;;;;;15.27;5.47;;;;;;;;;;4960846;28;20062;-60
2024/03/22 01:48:53;;;;;;;13.38;5.18;;;;;;;;;;4957079;28;20050;-60
2024/03/22 01:51:43;;;;;;;17.73;5.28;;;;;;;;;;4957110;28;20509;-50
2024/03/22 01:54:36;;;;;;;13.60;5.30;;;;;;;;;;4963252;28;20078;-60
2024/03/22 01:57:29;;;;;;;15.88;5.72;;;;;;;;;;4974112;28;20467;-59
2024/03/22 02:00:15;;;;;;;16.80;6.13;;;;;;;;;;4962588;28;20062;-60
2024/03/22 02:03:09;;;;;;;15.57;5.70;;;;;;;;;;4975216;28;20058;-60
2024/03/22 02:05:55;;;;;;;13.48;5.25;;;;;;;;;;4955560;28;20501;-60
2024/03/22 02:08:48;;;;;;;14.57;5.30;;;;;;;;;;4964031;28;20066;-60
2024/03/22 02:11:34;;;;;;;14.30;4.50;;;;;;;;;;4960480;28;20473;-60
2024/03/22 02:14:27;;;;;;;9.88;4.30;;;;;;;;;;4959336;28;20059;-61
2024/03/22 02:17:20;;;;;;;9.73;4.60;;;;;;;;;;4957652;28;20432;-63
2024/03/22 02:20:13;;;;;;;10.05;4.38;;;;;;;;;;4960358;28;20066;-49
2024/03/22 02:22:59;;;;;;;12.82;3.90;;;;;;;;;;4958203;28;20058;-60
2024/03/22 02:25:52;;;;;;;9.30;3.67;;;;;;;;;;4956661;28;20070;-60
2024/03/22 02:28:38;;;;;;;7.25;3.80;;;;;;;;;;4957922;28;20055;-60
2024/03/22 02:31:32;;;;;;;6.32;3.65;;;;;;;;;;4964277;28;20058;-60
2024/03/22 02:34:17;;;;;;;11.43;3.42;;;;;;;;;;4957706;28;20050;-60
2024/03/22 02:37:10;;;;;;;7.68;3.78;;;;;;;;;;4961470;28;20062;-60
2024/03/22 02:39:56;;;;;;;14.88;4.65;;;;;;;;;;4957906;28;20057;-62
2024/03/22 02:42:49;;;;;;;12.35;4.00;;;;;;;;;;4963087;28;20057;-63
2024/03/22 02:45:35;;;;;;;11.93;5.43;;;;;;;;;;4962337;28;20051;-62
2024/03/22 02:48:28;;;;;;;12.93;5.40;;;;;;;;;;4961341;28;20101;-65
2024/03/22 02:51:14;;;;;;;13.48;6.00;;;;;;;;;;4962480;28;20708;-62
2024/03/22 02:54:07;;;;;;;16.13;5.88;;;;;;;;;;4963563;28;23578;-61
2024/03/22 02:56:53;;;;;;;11.27;5.82;;;;;;;;;;4963765;28;20432;-61
2024/03/22 02:59:46;;;;;;;16.83;5.40;;;;;;;;;;4967392;28;20529;-61
2024/03/22 03:02:32;;;;;;;11.80;5.88;;;;;;;;;;4958658;28;20054;-62
2024/03/22 03:05:25;;;;;;;21.23;6.47;;;;;;;;;;4962867;28;20062;-61
2024/03/22 03:08:11;;;;;;;20.83;7.35;;;;;;;;;;4959038;28;20058;-61
2024/03/22 03:11:04;;;;;;;22.90;8.35;;;;;;;;;;4958790;28;20533;-61
2024/03/22 03:13:50;;;;;;;25.75;8.95;;;;;;;;;;4963671;28;20059;-61
2024/03/22 03:16:43;;;;;;;20.35;9.13;;;;;;;;;;4959561;28;20058;-61
2024/03/22 03:19:36;;;;;;;26.60;8.77;;;;;;;;;;4965346;28;20058;-61
2024/03/22 03:22:29;;;;;;;34.92;11.18;;;;;;;;;;4961017;28;20061;-61
2024/03/22 03:25:22;;;;;;;30.45;10.15;;;;;;;;;;4966419;28;20058;-61
2024/03/22 03:28:15;;;;;;;33.00;10.05;;;;;;;;;;4963647;28;20065;-61
2024/03/22 03:31:08;;;;;;;31.30;9.98;;;;;;;;;;4967239;28;20054;-61
2024/03/22 03:34:01;;;;;;;32.05;9.18;;;;;;;;;;4963896;28;20125;-61
2024/03/22 03:36:47;;;;;;;19.42;7.65;;;;;;;;;;4959679;28;20077;-62
2024/03/22 03:39:40;;;;;;;28.55;9.02;;;;;;;;;;4962487;28;20069;-62
2024/03/22 03:42:26;;;;;;;24.48;9.02;;;;;;;;;;4963789;28;20062;-62
2024/03/22 03:45:19;;;;;;;28.90;9.57;;;;;;;;;;4980306;28;20520;-51
2024/03/22 03:48:05;;;;;;;34.60;9.43;;;;;;;;;;4959548;28;20077;-52
2024/03/22 03:51:02;;;;;;;35.97;11.15;;;;;;;;;;4963620;28;20069;-63
2024/03/22 03:53:44;;;;;;;47.47;15.27;;;;;;;;;;4959480;28;20492;-63
2024/03/22 03:56:37;;;;;;;60.88;13.20;;;;;;;;;;4972649;28;20082;-62
2024/03/22 03:59:23;;;;;;;37.03;12.20;;;;;;;;;;4958466;28;20508;-62
2024/03/22 04:02:16;;;;;;;57.67;14.00;;;;;;;;;;4959641;28;20062;-62
2024/03/22 04:05:09;;;;;;;72.95;16.30;;;;;;;;;;4961020;28;20422;-52
2024/03/22 04:08:02;;;;;;;43.70;11.90;;;;;;;;;;4961433;28;20054;-50
2024/03/22 04:10:52;;;;;;;71.85;16.33;;;;;;;;;;4959082;28;20117;-50
2024/03/22 04:13:45;;;;;;;43.58;12.73;;;;;;;;;;4964074;28;20059;-50
2024/03/22 04:16:51;;;;;;;63.13;15.50;;;;;;;;;;4959602;28;20129;-61
2024/03/22 04:19:57;;;;;;;42.63;13.35;;;;;;;;;;4961417;28;20104;-60
2024/03/22 04:22:57;;;;;;;58.95;13.80;;;;;;;;;;4962253;28;20058;-60
2024/03/22 04:25:51;;;;;;;58.60;14.75;;;;;;;;;;4961442;28;20050;-60
2024/03/22 04:28:44;;;;;;;66.97;15.60;;;;;;;;;;4958768;28;20459;-60
2024/03/22 04:31:30;;;;;;;63.90;15.40;;;;;;;;;;4962047;28;20065;-60
2024/03/22 04:34:23;;;;;;;107.60;18.33;;;;;;;;;;4962663;28;20054;-61
2024/03/22 04:37:11;;;;;;;33.00;11.43;;;;;;;;;;4961382;28;20543;-61
2024/03/22 04:40:03;;;;;;;68.25;14.35;;;;;;;;;;4973323;28;20069;-61
2024/03/22 04:42:49;;;;;;;51.90;14.02;;;;;;;;;;4960620;28;20744;-61
2024/03/22 04:45:46;;;;;;;42.17;11.93;;;;;;;;;;4975372;28;20058;-62
2024/03/22 04:48:32;;;;;;;42.75;12.25;;;;;;;;;;4960667;28;20062;-62
2024/03/22 04:51:25;;;;;;;46.80;13.20;;;;;;;;;;4961010;28;20058;-62
2024/03/22 04:54:11;;;;;;;85.35;16.02;;;;;;;;;;4961042;28;20476;-63
2024/03/22 04:57:04;;;;;;;86.25;15.82;;;;;;;;;;4960939;28;20065;-62
2024/03/22 04:59:50;;;;;;;67.97;15.05;;;;;;;;;;4962639;28;20069;-62
2024/03/22 05:02:43;;;;;;;44.47;13.48;;;;;;;;;;4960595;28;20055;-61
2024/03/22 05:05:29;;;;;;;95.63;16.50;;;;;;;;;;4960285;28;20063;-61
2024/03/22 05:08:22;;;;;;;63.22;14.55;;;;;;;;;;4957975;28;20062;-63
2024/03/22 05:11:08;;;;;;;76.55;16.08;;;;;;;;;;4960631;28;20050;-60
2024/03/22 05:14:01;;;;;;;76.65;13.73;;;;;;;;;;4964520;28;20104;-62
2024/03/22 05:16:54;;;;;;;48.28;12.73;;;;;;;;;;4958605;28;20054;-62
2024/03/22 05:19:54;;;;;;;126.40;16.50;;;;;;;;;;4960385;28;20054;-63
2024/03/22 05:22:40;;;;;;;96.85;16.55;;;;;;;;;;4957408;28;20061;-62
2024/03/22 05:25:33;;;;;;;60.30;13.57;;;;;;;;;;4974367;28;20053;-63
2024/03/22 05:28:19;;;;;;;53.53;13.70;;;;;;;;;;4956074;28;20066;-63
2024/03/22 05:31:19;;;;;;;40.03;11.43;;;;;;;;;;4960714;28;20054;-65
2024/03/22 05:34:05;;;;;;;49.35;13.05;;;;;;;;;;4956283;28;20129;-65
2024/03/22 05:36:58;;;;;;;26.48;10.25;;;;;;;;;;4959219;28;20066;-65
2024/03/22 05:39:44;;;;;;;51.97;12.52;;;;;;;;;;4961690;28;20063;-49
2024/03/22 05:42:37;;;;;;;52.40;12.80;;;;;;;;;;4966708;28;20065;-61
2024/03/22 05:45:23;;;;;;;52.53;12.93;;;;;;;;;;4959342;28;20423;-61
2024/03/22 05:48:16;;;;;;;35.63;11.27;;;;;;;;;;4969766;28;20066;-62
2024/03/22 05:51:02;;;;;;;23.65;9.05;;;;;;;;;;4962000;28;20061;-61
2024/03/22 05:53:55;;;;;;;37.40;10.55;;;;;;;;;;4955606;28;20671;-61
2024/03/22 05:56:41;;;;;;;52.75;13.20;;;;;;;;;;4958952;28;20062;-61
2024/03/22 05:59:34;;;;;;;35.60;11.50;;;;;;;;;;4962896;28;20050;-60
2024/03/22 06:02:20;;;;;;;40.60;12.55;;;;;;;;;;4958984;28;20062;-60
2024/03/22 06:05:13;;;;;;;48.20;13.80;;;;;;;;;;4959585;28;20470;-60
2024/03/22 06:08:06;;;;;;;36.75;11.88;;;;;;;;;;4961727;28;20058;-54
2024/03/22 06:10:59;;;;;;;49.47;13.43;;;;;;;;;;4959890;28;20070;-50
2024/03/22 06:13:45;;;;;;;58.17;13.88;;;;;;;;;;4958195;28;20073;-47
2024/03/22 06:16:51;;;;;;;53.42;13.63;;;;;;;;;;4968486;28;20546;-50
2024/03/22 06:19:44;;;;;;;38.95;11.70;;;;;;;;;;4963881;28;20752;-50
2024/03/22 06:22:37;;;;;;;41.88;13.50;;;;;;;;;;4961969;28;20058;-52
2024/03/22 06:25:23;;;;;;;47.17;13.80;;;;;;;;;;4965645;28;20054;-52
2024/03/22 06:28:16;;;;;;;41.30;12.68;;;;;;;;;;4968003;28;20057;-64
2024/03/22 06:31:03;;;;;;;34.67;12.35;;;;;;;;;;4967617;28;20050;-65
2024/03/22 06:34:01;;;;;;;52.15;14.02;;;;;;;;;;4972004;28;20070;-65
2024/03/22 06:36:41;;;;;;;26.77;11.60;;;;;;;;;;4965157;28;20080;-55
2024/03/22 06:39:34;;;;;;;47.65;13.77;;;;;;;;;;4971637;28;20058;-64
2024/03/22 06:42:20;;;;;;;47.88;14.98;;;;;;;;;;4964606;28;21531;-63
2024/03/22 06:45:13;;;;;;;41.58;13.40;;;;;;;;;;4967970;28;20054;-65
2024/03/22 06:48:06;;;;;;;35.65;11.63;;;;;;;;;;4963478;28;20066;-64
2024/03/22 06:50:59;;;;;;;32.38;12.38;;;;;;;;;;4969156;28;20061;-64
2024/03/22 06:53:52;;;;;;;31.77;11.85;;;;;;;;;;4965620;28;20058;-65
2024/03/22 06:56:38;;;;;;;28.58;12.43;;;;;;;;;;4965800;28;20054;-61
2024/03/22 06:59:31;;;;;;;32.60;11.73;;;;;;;;;;4966131;28;20067;-60
2024/03/22 07:02:24;;;;;;;38.58;12.63;;;;;;;;;;4965550;28;20054;-60
2024/03/22 07:05:11;;;;;;;35.17;12.60;;;;;;;;;;4965756;28;20061;-49
2024/03/22 07:08:04;;;;;;;21.63;9.02;;;;;;;;;;4965111;28;20055;-52
2024/03/22 07:10:57;;;;;;;26.65;10.93;;;;;;;;;;4963634;28;20069;-52
2024/03/22 07:13:43;;;;;;;28.58;10.43;;;;;;;;;;4963697;28;20500;-47
2024/03/22 07:16:49;;;;;;;19.95;9.27;;;;;;;;;;4966289;28;20051;-53
2024/03/22 07:19:42;;;;;;;21.73;9.02;;;;;;;;;;4945057;28;20051;-49
2024/03/22 07:22:35;;;;;;;16.08;7.65;;;;;;;;;;4944832;28;20121;-49
2024/03/22 07:25:21;;;;;;;16.38;7.85;;;;;;;;;;4944530;28;20055;-65
2024/03/22 07:28:15;;;;;;;22.58;8.07;;;;;;;;;;4950910;28;20082;-65
2024/03/22 07:31:00;;;;;;;17.88;7.65;;;;;;;;;;4949027;28;20069;-64
2024/03/22 07:33:53;;;;;;;20.30;7.00;;;;;;;;;;4948011;28;20487;-60
2024/03/22 07:36:40;;;;;;;16.33;6.80;;;;;;;;;;4944236;28;20063;-53
2024/03/22 07:39:33;;;;;;;16.30;6.35;;;;;;;;;;4949816;28;20058;-53
2024/03/22 07:42:21;;;;;;;14.55;5.57;;;;;;;;;;4943425;28;20425;-50
2024/03/22 07:45:12;;;;;;;20.40;6.38;;;;;;;;;;4950244;28;20587;-48
2024/03/22 07:47:58;;;;;;;15.90;6.32;;;;;;;;;;4945142;28;20063;-53
2024/03/22 07:51:01;;;;;;;31.10;7.95;;;;;;;;;;4948021;28;20059;-50
2024/03/22 07:53:47;;;;;;;22.85;7.82;;;;;;;;;;4944982;28;20062;-62
2024/03/22 07:56:40;;;;;;;25.27;6.43;;;;;;;;;;4949756;28;20062;-63
2024/03/22 07:59:26;;;;;;;18.45;6.53;;;;;;;;;;4944505;28;20051;-62
2024/03/22 08:02:19;;;;;;;21.42;5.97;;;;;;;;;;4947476;28;20070;-60
2024/03/22 08:05:12;;;;;;;19.58;6.32;;;;;;;;;;4942740;28;20051;-60
2024/03/22 08:08:05;;;;;;;45.47;7.70;;;;;;;;;;4947695;28;20059;-60
2024/03/22 08:10:51;;;;;;;22.13;6.97;;;;;;;;;;4940050;28;20429;-60
2024/03/22 08:13:44;;;;;;;21.80;6.22;;;;;;;;;;4943845;28;20062;-59
2024/03/22 08:16:30;;;;;;;24.85;6.93;;;;;;;;;;4941750;28;20150;-61
2024/03/22 08:19:30;;;;;;;21.77;6.35;;;;;;;;;;4957902;28;20062;-60
2024/03/22 08:22:16;;;;;;;26.35;7.03;;;;;;;;;;4947971;28;20058;-52
2024/03/22 08:25:09;;;;;;;26.70;6.90;;;;;;;;;;4949569;28;20437;-50
2024/03/22 08:28:02;;;;;;;27.98;7.15;;;;;;;;;;4945539;28;20063;-49
2024/03/22 08:30:55;;;;;;;27.23;7.07;;;;;;;;;;4948942;28;20121;-62
2024/03/22 08:33:41;;;;;;;39.13;7.43;;;;;;;;;;4944888;28;20501;-52
2024/03/22 08:36:34;;;;;;;49.97;9.75;;;;;;;;;;4948025;28;20490;-54
2024/03/22 08:39:20;;;;;;;32.28;7.38;;;;;;;;;;4948065;28;20058;-55
2024/03/22 08:42:13;;;;;;;55.83;10.77;;;;;;;;;;4943176;28;20476;-54
2024/03/22 08:45:06;;;;;;;42.13;9.13;;;;;;;;;;4959938;28;20067;-49
2024/03/22 08:47:59;;;;;;;37.28;8.93;;;;;;;;;;4946443;28;20062;-53
2024/03/22 08:50:45;;;;;;;47.67;10.07;;;;;;;;;;4947816;28;20054;-50
2024/03/22 08:53:38;;;;;;;51.33;11.02;;;;;;;;;;4947008;28;20057;-50
2024/03/22 08:56:24;;;;;;;70.05;10.93;;;;;;;;;;4947694;28;20081;-52
2024/03/22 08:59:17;;;;;;;62.08;10.88;;;;;;;;;;4947719;28;20073;-61
2024/03/22 09:02:03;;;;;;;61.33;11.15;;;;;;;;;;4961838;28;20068;-61
2024/03/22 09:04:56;;;;;;;66.50;10.57;;;;;;;;;;4948395;28;20066;-60
2024/03/22 09:07:50;;;;;;;63.47;10.23;;;;;;;;;;4964002;28;20062;-61
2024/03/22 09:10:42;;;;;;;66.75;10.82;;;;;;;;;;4946406;28;20066;-61
2024/03/22 09:13:28;;;;;;;59.55;9.77;;;;;;;;;;4950962;28;20477;-62
2024/03/22 09:16:21;;;;;;;67.47;9.57;;;;;;;;;;4947177;28;20519;-63
2024/03/22 09:19:14;;;;;;;81.10;12.68;;;;;;;;;;4964909;28;20054;-61
2024/03/22 09:22:07;;;;;;;77.97;11.05;;;;;;;;;;4976626;28;20046;-61
2024/03/22 09:24:54;;;;;;;55.83;8.30;;;;;;;;;;4960179;28;20051;-62
2024/03/22 09:27:46;;;;;;;70.20;11.27;;;;;;;;;;4964578;28;20054;-53
2024/03/22 09:30:32;;;;;;;71.65;10.18;;;;;;;;;;4963750;28;20058;-62
2024/03/22 09:33:25;;;;;;;55.85;8.70;;;;;;;;;;4963573;28;20108;-62
2024/03/22 09:36:11;;;;;;;66.63;10.63;;;;;;;;;;4961177;28;20120;-63
2024/03/22 09:39:04;;;;;;;64.13;9.18;;;;;;;;;;4962882;28;20066;-62
2024/03/22 09:41:51;;;;;;;58.35;8.48;;;;;;;;;;4962231;28;20063;-63
2024/03/22 09:44:48;;;;;;;54.72;8.48;;;;;;;;;;4962922;28;20073;-62
2024/03/22 09:47:34;;;;;;;50.08;9.15;;;;;;;;;;4963335;28;20121;-61
2024/03/22 09:50:27;;;;;;;70.32;9.82;;;;;;;;;;4966862;28;20508;-61
2024/03/22 09:53:14;;;;;;;62.05;9.45;;;;;;;;;;4965541;28;20058;-62
2024/03/22 09:56:07;;;;;;;53.35;8.50;;;;;;;;;;4960939;28;20062;-63
2024/03/22 09:58:53;;;;;;;51.38;8.80;;;;;;;;;;4969913;28;20045;-61
2024/03/22 10:01:46;;;;;;;53.90;9.82;;;;;;;;;;4970532;28;20057;-60
2024/03/22 10:04:32;;;;;;;51.63;7.93;;;;;;;;;;4965034;28;20464;-60
2024/03/22 10:07:26;;;;;;;59.90;9.80;;;;;;;;;;4971674;28;20063;-61
2024/03/22 10:10:14;;;;;;;59.83;10.48;;;;;;;;;;4969764;28;20066;-61
2024/03/22 10:13:05;;;;;;;53.42;9.25;;;;;;;;;;4968583;28;20062;-61
2024/03/22 10:15:54;;;;;;;50.97;10.10;;;;;;;;;;4966599;28;20068;-53
2024/03/22 10:18:55;;;;;;;58.58;10.02;;;;;;;;;;4965112;28;20069;-53
2024/03/22 10:21:41;;;;;;;64.63;10.43;;;;;;;;;;4967183;28;20069;-55
2024/03/22 10:24:34;;;;;;;48.05;8.68;;;;;;;;;;4962919;28;20062;-61
2024/03/22 10:27:20;;;;;;;58.03;9.23;;;;;;;;;;4963140;28;20070;-60
2024/03/22 10:30:16;;;;;;;63.67;10.52;;;;;;;;;;4969919;28;20050;-60
2024/03/22 10:33:03;;;;;;;65.85;10.02;;;;;;;;;;4964382;28;20580;-61
2024/03/22 10:35:56;;;;;;;58.33;9.82;;;;;;;;;;4967237;28;20504;-61
2024/03/22 10:38:42;;;;;;;57.55;9.40;;;;;;;;;;4965643;28;20050;-61
2024/03/22 10:41:36;;;;;;;66.72;10.05;;;;;;;;;;4966084;28;20600;-60
2024/03/22 10:44:22;;;;;;;64.35;11.57;;;;;;;;;;4965910;28;20070;-61
2024/03/22 10:47:15;;;;;;;59.80;9.68;;;;;;;;;;4965608;28;20065;-62
2024/03/22 10:50:06;;;;;;;45.75;8.13;;;;;;;;;;4965601;28;20054;-61
2024/03/22 10:53:02;;;;;;;69.53;9.15;;;;;;;;;;4973818;28;20066;-60
2024/03/22 10:55:49;;;;;;;54.65;8.70;;;;;;;;;;4973931;28;20752;-62
2024/03/22 10:58:47;;;;;;;63.85;10.63;;;;;;;;;;4964680;28;20058;-60
2024/03/22 11:01:33;;;;;;;63.22;10.02;;;;;;;;;;4969348;28;20420;-60
2024/03/22 11:04:24;;;;;;;51.92;7.72;;;;;;;;;;4982262;28;20066;-60
2024/03/22 11:07:20;;;;;;;61.80;10.07;;;;;;;;;;4961625;28;20050;-60
2024/03/22 11:10:13;;;;;;;62.90;9.18;;;;;;;;;;4968147;28;20057;-60
2024/03/22 11:13:09;;;;;;;64.80;11.15;;;;;;;;;;4963463;28;21625;-62
2024/03/22 11:15:55;;;;;;;59.58;10.07;;;;;;;;;;4966162;28;20050;-62
2024/03/22 11:18:55;;;;;;;67.20;9.65;;;;;;;;;;4965681;28;20069;-62
2024/03/22 11:21:48;;;;;;;61.53;8.18;;;;;;;;;;4978612;28;20046;-67
2024/03/22 11:24:35;;;;;;;58.28;8.27;;;;;;;;;;4962656;28;20546;-47
2024/03/22 11:27:27;;;;;;;61.97;8.63;;;;;;;;;;4963309;28;20058;-50
2024/03/22 11:30:13;;;;;;;62.05;9.25;;;;;;;;;;4963808;28;20067;-48
2024/03/22 11:33:06;;;;;;;62.85;10.63;;;;;;;;;;4962809;28;20572;-52
2024/03/22 11:35:52;;;;;;;64.63;9.85;;;;;;;;;;4965724;28;20054;-53
2024/03/22 11:38:46;;;;;;;60.75;9.07;;;;;;;;;;4967999;28;20586;-48
2024/03/22 11:41:32;;;;;;;58.63;7.78;;;;;;;;;;4964484;28;20068;-67
2024/03/22 11:44:25;;;;;;;59.63;9.50;;;;;;;;;;4962982;28;20063;-66
2024/03/22 11:47:17;;;;;;;49.85;7.85;;;;;;;;;;4967463;28;20054;-66
2024/03/22 11:50:04;;;;;;;70.28;10.30;;;;;;;;;;4963024;28;20697;-59
2024/03/22 11:52:56;;;;;;;63.53;10.63;;;;;;;;;;4970339;28;20070;-62
2024/03/22 11:55:42;;;;;;;72.40;10.88;;;;;;;;;;4965899;28;20634;-62
2024/03/22 11:58:35;;;;;;;70.03;10.82;;;;;;;;;;4965510;28;20058;-62
2024/03/22 12:01:22;;;;;;;59.70;9.10;;;;;;;;;;4961379;28;20077;-62
2024/03/22 12:04:14;;;;;;;58.75;9.65;;;;;;;;;;4962899;28;20061;-62
2024/03/22 12:07:00;;;;;;;65.40;8.82;;;;;;;;;;4965161;28;20063;-62
2024/03/22 12:09:53;;;;;;;60.15;8.15;;;;;;;;;;4963993;28;20061;-66
2024/03/22 12:12:39;;;;;;;65.15;9.25;;;;;;;;;;4964000;28;20504;-67
2024/03/22 12:15:32;;;;;;;54.53;8.82;;;;;;;;;;4960184;28;20055;-66
2024/03/22 12:18:25;;;;;;;52.33;7.18;;;;;;;;;;4957035;28;20539;-62
2024/03/22 12:21:24;;;;;;;68.07;9.50;;;;;;;;;;4966370;28;20066;-60
2024/03/22 12:24:10;;;;;;;59.50;8.45;;;;;;;;;;4960853;28;20503;-60
2024/03/22 12:27:03;;;;;;;70.85;10.82;;;;;;;;;;4962926;28;20054;-60
2024/03/22 12:29:49;;;;;;;71.20;11.20;;;;;;;;;;4963580;28;20643;-61
2024/03/22 12:32:42;;;;;;;54.67;9.00;;;;;;;;;;4962845;28;20672;-60
2024/03/22 12:35:32;;;;;;;70.90;9.80;;;;;;;;;;4965266;28;20058;-60
2024/03/22 12:38:21;;;;;;;73.45;10.75;;;;;;;;;;4964305;28;20085;-62
2024/03/22 12:41:07;;;;;;;52.50;8.70;;;;;;;;;;4966371;28;20058;-62
2024/03/22 12:44:00;;;;;;;75.97;10.50;;;;;;;;;;4965976;28;20055;-62
2024/03/22 12:46:47;;;;;;;63.33;9.73;;;;;;;;;;4968734;28;20436;-62
2024/03/22 12:49:39;;;;;;;83.13;11.52;;;;;;;;;;4964308;28;20060;-67
2024/03/22 12:52:25;;;;;;;70.20;9.93;;;;;;;;;;4964270;28;20042;-66
2024/03/22 12:55:18;;;;;;;80.47;10.90;;;;;;;;;;4962855;28;20066;-67
2024/03/22 12:58:04;;;;;;;69.88;10.93;;;;;;;;;;4962582;28;20069;-66
2024/03/22 13:00:58;;;;;;;59.10;9.20;;;;;;;;;;4965195;28;20074;-67
2024/03/22 13:03:44;;;;;;;65.57;10.55;;;;;;;;;;4960832;28;20172;-66
2024/03/22 13:06:36;;;;;;;80.75;11.65;;;;;;;;;;4964738;28;20508;-60
2024/03/22 13:09:22;;;;;;;72.75;9.35;;;;;;;;;;4959926;28;20120;-60
2024/03/22 13:12:15;;;;;;;75.68;10.63;;;;;;;;;;4960781;28;20059;-60
2024/03/22 13:15:02;;;;;;;76.43;12.07;;;;;;;;;;4962614;28;20061;-60
2024/03/22 13:18:09;;;;;;;79.55;12.82;;;;;;;;;;4964982;28;20065;-60
2024/03/22 13:21:02;;;;;;;85.55;12.75;;;;;;;;;;4959632;28;20084;-60
2024/03/22 13:23:54;;;;;;;82.45;11.30;;;;;;;;;;4959571;28;20484;-60
2024/03/22 13:26:40;;;;;;;81.35;12.48;;;;;;;;;;4962468;28;20062;-60
2024/03/22 13:29:33;;;;;;;76.95;11.18;;;;;;;;;;4958529;28;20070;-60
2024/03/22 13:32:20;;;;;;;70.10;10.60;;;;;;;;;;4962468;28;20059;-60
2024/03/22 13:35:12;;;;;;;71.63;11.93;;;;;;;;;;4963744;28;20065;-62
2024/03/22 13:37:58;;;;;;;78.82;9.98;;;;;;;;;;4963356;28;20066;-62
2024/03/22 13:40:55;;;;;;;73.03;11.27;;;;;;;;;;4964212;28;20057;-62
2024/03/22 13:43:48;;;;;;;88.75;12.63;;;;;;;;;;4977665;28;20054;-66
2024/03/22 13:46:36;;;;;;;79.68;12.75;;;;;;;;;;4965793;28;20050;-60
2024/03/22 13:49:26;;;;;;;68.88;10.88;;;;;;;;;;4963760;28;20076;-60
2024/03/22 13:52:13;;;;;;;74.95;11.23;;;;;;;;;;4958668;28;20058;-60
2024/03/22 13:55:05;;;;;;;55.80;10.35;;;;;;;;;;4962505;28;20394;-60
2024/03/22 13:57:52;;;;;;;82.63;11.45;;;;;;;;;;4960610;28;20065;-60
2024/03/22 14:00:44;;;;;;;73.63;12.77;;;;;;;;;;4960239;28;20054;-61
2024/03/22 14:03:33;;;;;;;67.53;9.65;;;;;;;;;;4963531;28;20062;-61
2024/03/22 14:06:26;;;;;;;83.20;11.45;;;;;;;;;;4959930;28;20061;-61
2024/03/22 14:09:13;;;;;;;68.60;10.13;;;;;;;;;;4960763;28;20752;-61
2024/03/22 14:12:06;;;;;;;72.07;11.07;;;;;;;;;;4959538;28;20062;-66
2024/03/22 14:14:51;;;;;;;59.60;10.25;;;;;;;;;;4961009;28;20050;-52
2024/03/22 14:17:58;;;;;;;70.25;10.07;;;;;;;;;;4963104;28;20058;-52
2024/03/22 14:20:51;;;;;;;67.03;10.88;;;;;;;;;;4964608;28;20070;-53
2024/03/22 14:23:44;;;;;;;76.40;11.00;;;;;;;;;;4961079;28;20575;-49
2024/03/22 14:26:30;;;;;;;73.65;11.73;;;;;;;;;;4961843;28;20058;-53
2024/03/22 14:29:23;;;;;;;58.22;10.73;;;;;;;;;;4965081;28;20059;-54
2024/03/22 14:32:09;;;;;;;84.90;11.07;;;;;;;;;;4963421;28;20117;-48
2024/03/22 14:35:02;;;;;;;56.55;9.43;;;;;;;;;;4965154;28;20059;-51
2024/03/22 14:37:48;;;;;;;55.13;9.35;;;;;;;;;;4963411;28;20050;-47
2024/03/22 14:40:41;;;;;;;56.47;8.98;;;;;;;;;;4957481;28;20054;-61
2024/03/22 14:43:34;;;;;;;51.35;8.20;;;;;;;;;;4960521;28;20055;-60
2024/03/22 14:46:29;;;;;;;64.75;7.82;;;;;;;;;;4966495;28;20054;-60
2024/03/22 14:49:13;;;;;;;62.63;8.93;;;;;;;;;;4962032;28;20058;-61
2024/03/22 14:52:07;;;;;;;41.03;7.38;;;;;;;;;;4966181;28;20072;-60
2024/03/22 14:54:53;;;;;;;53.38;7.60;;;;;;;;;;4957034;28;20432;-60
2024/03/22 14:57:45;;;;;;;56.65;8.23;;;;;;;;;;4965225;28;20057;-60
2024/03/22 15:00:39;;;;;;;41.97;7.07;;;;;;;;;;4963128;28;20047;-60
2024/03/22 15:03:31;;;;;;;53.40;8.05;;;;;;;;;;4962426;28;20463;-60
2024/03/22 15:06:17;;;;;;;50.40;7.75;;;;;;;;;;4957487;28;20058;-60
2024/03/22 15:09:11;;;;;;;51.28;7.97;;;;;;;;;;4961648;28;20061;-66
2024/03/22 15:11:58;;;;;;;62.60;10.27;;;;;;;;;;4959793;28;20094;-54
2024/03/22 15:14:49;;;;;;;62.85;9.40;;;;;;;;;;4961840;28;20712;-49
2024/03/22 15:17:41;;;;;;;67.10;9.73;;;;;;;;;;4965905;28;20129;-53
2024/03/22 15:20:41;;;;;;;58.70;9.45;;;;;;;;;;4972561;28;20420;-49
2024/03/22 15:23:27;;;;;;;60.75;10.35;;;;;;;;;;4967075;28;20113;-51
2024/03/22 15:26:21;;;;;;;61.80;9.25;;;;;;;;;;4967337;28;20424;-47
2024/03/22 15:29:05;;;;;;;63.80;10.10;;;;;;;;;;4968238;28;20160;-63
2024/03/22 15:31:59;;;;;;;45.88;7.55;;;;;;;;;;4964348;28;20062;-62
2024/03/22 15:34:44;;;;;;;50.72;8.55;;;;;;;;;;4960570;28;20065;-63
2024/03/22 15:37:42;;;;;;;58.25;9.70;;;;;;;;;;4965605;28;20058;-63
2024/03/22 15:40:34;;;;;;;54.20;9.63;;;;;;;;;;4968535;28;20504;-62
2024/03/22 15:43:20;;;;;;;55.75;9.85;;;;;;;;;;4962351;28;20063;-63
2024/03/22 15:46:13;;;;;;;53.17;7.53;;;;;;;;;;4961709;28;20070;-62
2024/03/22 15:48:59;;;;;;;50.08;8.68;;;;;;;;;;4958530;28;20489;-62
2024/03/22 15:51:52;;;;;;;50.85;7.60;;;;;;;;;;4956497;28;20113;-63
2024/03/22 15:54:38;;;;;;;55.47;7.40;;;;;;;;;;4959350;28;20050;-62
2024/03/22 15:57:31;;;;;;;60.55;9.30;;;;;;;;;;4962348;28;20062;-60
2024/03/22 16:00:17;;;;;;;55.58;6.97;;;;;;;;;;4954709;28;20795;-60
2024/03/22 16:03:13;;;;;;;60.63;8.20;;;;;;;;;;4963779;28;20055;-60
2024/03/22 16:06:03;;;;;;;55.05;8.48;;;;;;;;;;4961323;28;20066;-62
2024/03/22 16:08:56;;;;;;;49.45;8.57;;;;;;;;;;4963141;28;20838;-61
2024/03/22 16:11:49;;;;;;;56.42;7.25;;;;;;;;;;4964818;28;20058;-61
2024/03/22 16:14:42;;;;;;;44.60;7.32;;;;;;;;;;4962173;28;20061;-61
2024/03/22 16:17:28;;;;;;;53.35;7.07;;;;;;;;;;4960710;28;20500;-61
2024/03/22 16:20:29;;;;;;;38.08;6.40;;;;;;;;;;4943476;28;20512;-61
2024/03/22 16:23:14;;;;;;;58.03;7.28;;;;;;;;;;4941609;28;20059;-61
2024/03/22 16:26:07;;;;;;;50.25;6.72;;;;;;;;;;4943175;28;20055;-64
2024/03/22 16:28:53;;;;;;;52.50;8.05;;;;;;;;;;4938843;28;20067;-64
2024/03/22 16:31:46;;;;;;;43.63;5.68;;;;;;;;;;4941196;28;20512;-64
2024/03/22 16:34:33;;;;;;;47.53;6.57;;;;;;;;;;4936405;28;20061;-62
2024/03/22 16:37:25;;;;;;;52.13;7.05;;;;;;;;;;4930655;28;20106;-65
2024/03/22 16:40:20;;;;;;;55.90;7.32;;;;;;;;;;4941308;28;20063;-64